Terminal Aerodrome Forecast
Issued by NWS Topeka, KS

Home | Current Version | Previous Version | Text Only | Print | Product List | Glossary On
Versions: 1 2 3 4 5 6 7 8 9 10 11 12 13 14 15 16
000
FTUS43 KTOP 231700
TAFTOP
TAF
KTOP 231722Z 2318/2418 13008KT P6SM BKN015 OVC025
     FM232100 13011KT P6SM SHRA BKN015 OVC025
     FM240200 13009KT 4SM RA VCTS BKN010CB OVC025
     FM240700 14008KT P6SM SHRA BKN010 OVC030=

USA.gov is the U.S. government's official web portal to all federal, state and local government web resources and services.